createdAt,value
2022-08-12T00:00:52.566Z,19.30
2022-08-12T00:03:38.219Z,19.30
2022-08-12T00:06:24.380Z,19.30
2022-08-12T00:09:10.503Z,19.30
2022-08-12T00:11:56.141Z,19.30
2022-08-12T00:14:41.674Z,19.20
2022-08-12T00:17:27.406Z,19.20
2022-08-12T00:20:12.860Z,19.20
2022-08-12T00:22:59.740Z,19.20
2022-08-12T00:26:23.796Z,19.30
2022-08-12T00:29:05.090Z,19.20
2022-08-12T00:31:50.680Z,19.40
2022-08-12T00:34:36.454Z,19.40
2022-08-12T00:37:23.097Z,19.20
2022-08-12T00:40:10.952Z,19.10
2022-08-12T00:42:40.724Z,19.00
2022-08-12T00:45:08.242Z,18.90
2022-08-12T00:47:37.670Z,18.80
2022-08-12T00:50:06.629Z,18.80
2022-08-12T00:52:34.686Z,18.70
2022-08-12T00:55:04.457Z,18.60
2022-08-12T00:57:37.631Z,18.70
2022-08-12T01:00:12.187Z,18.60
2022-08-12T01:02:46.394Z,18.60
2022-08-12T01:05:34.370Z,18.50
2022-08-12T01:08:20.439Z,18.50
2022-08-12T01:11:06.993Z,18.50
2022-08-12T01:13:39.144Z,18.40
2022-08-12T01:16:07.985Z,18.50
2022-08-12T01:18:42.118Z,18.50
2022-08-12T01:21:27.480Z,18.40
2022-08-12T01:24:32.081Z,18.40
2022-08-12T01:27:00.320Z,18.40
2022-08-12T01:29:32.940Z,18.30
2022-08-12T01:32:05.430Z,18.30
2022-08-12T01:34:37.645Z,18.20
2022-08-12T01:37:07.552Z,18.10
2022-08-12T01:40:33.832Z,18.20
2022-08-12T01:42:50.548Z,18.10
2022-08-12T01:45:22.907Z,18.10
2022-08-12T01:48:05.335Z,18.10
2022-08-12T01:51:05.334Z,18.10
2022-08-12T01:53:50.325Z,18.10
2022-08-12T01:56:21.982Z,18.00
2022-08-12T01:59:12.253Z,18.10
2022-08-12T02:01:40.368Z,18.00
2022-08-12T02:04:33.913Z,18.00
2022-08-12T02:07:37.830Z,17.90
2022-08-12T02:10:52.227Z,17.90
2022-08-12T02:13:49.025Z,17.90
2022-08-12T02:16:36.361Z,17.80
2022-08-12T02:19:22.209Z,17.70
2022-08-12T02:22:08.657Z,17.80
2022-08-12T02:24:38.367Z,17.70
2022-08-12T02:27:08.342Z,17.80
2022-08-12T02:29:36.610Z,17.70
2022-08-12T02:32:04.347Z,17.70
2022-08-12T02:34:31.732Z,17.70
2022-08-12T02:37:03.545Z,17.70
2022-08-12T02:39:33.953Z,17.70
2022-08-12T02:42:03.797Z,17.60
2022-08-12T02:44:37.554Z,17.60
2022-08-12T02:47:06.458Z,17.50
2022-08-12T02:49:39.869Z,17.50
2022-08-12T02:52:10.156Z,17.50
2022-08-12T02:54:38.762Z,17.50
2022-08-12T02:57:06.464Z,17.60
2022-08-12T02:59:35.601Z,17.60
2022-08-12T03:02:03.860Z,17.50
2022-08-12T03:04:57.947Z,17.60
2022-08-12T03:07:27.782Z,17.40
2022-08-12T03:10:16.030Z,17.40
2022-08-12T03:12:49.815Z,17.40
2022-08-12T03:15:22.471Z,17.40
2022-08-12T03:18:25.586Z,17.30
2022-08-12T03:20:55.054Z,17.30
2022-08-12T03:23:29.646Z,17.30
2022-08-12T03:25:59.257Z,17.30
2022-08-12T03:28:47.261Z,17.30
2022-08-12T03:31:14.104Z,17.10
2022-08-12T03:33:45.700Z,17.10
2022-08-12T03:36:28.988Z,17.10
2022-08-12T03:39:15.410Z,17.20
2022-08-12T03:41:48.202Z,17.20
2022-08-12T03:44:46.176Z,17.20
2022-08-12T03:47:49.661Z,17.20
2022-08-12T03:50:36.122Z,17.20
2022-08-12T03:53:30.400Z,17.20
2022-08-12T03:56:15.986Z,17.10
2022-08-12T03:59:01.877Z,17.00
2022-08-12T04:01:28.729Z,17.00
2022-08-12T04:03:55.937Z,17.00
2022-08-12T04:06:35.192Z,17.00
2022-08-12T04:09:14.754Z,17.00
2022-08-12T04:12:02.997Z,17.00
2022-08-12T04:14:33.795Z,17.00
2022-08-12T04:17:02.056Z,17.00
2022-08-12T04:19:30.017Z,17.00
2022-08-12T04:22:01.978Z,17.10
2022-08-12T04:24:34.922Z,17.10
2022-08-12T04:27:12.290Z,17.10
2022-08-12T04:30:29.075Z,17.10
2022-08-12T04:32:53.881Z,17.20
2022-08-12T04:37:58.984Z,17.30
2022-08-12T04:40:31.433Z,17.40
2022-08-12T04:43:01.366Z,17.50
2022-08-12T04:45:30.201Z,17.70
2022-08-12T04:47:57.304Z,17.80
2022-08-12T04:50:34.373Z,18.90
2022-08-12T04:53:05.309Z,20.80
2022-08-12T04:55:33.571Z,22.40
2022-08-12T04:58:00.758Z,23.30
2022-08-12T05:00:27.737Z,24.40
2022-08-12T05:02:54.998Z,25.10
2022-08-12T05:05:23.695Z,26.00
2022-08-12T05:07:54.871Z,26.50
2022-08-12T05:10:33.808Z,26.00
2022-08-12T05:13:23.417Z,26.00
2022-08-12T05:16:03.819Z,27.20
2022-08-12T05:18:39.438Z,27.00
2022-08-12T05:21:08.362Z,27.20
2022-08-12T05:23:37.742Z,27.20
2022-08-12T05:26:06.171Z,26.90
2022-08-12T05:28:33.670Z,28.60
2022-08-12T05:31:02.075Z,28.30
2022-08-12T05:33:35.697Z,28.60
2022-08-12T05:36:03.109Z,29.50
2022-08-12T05:38:48.646Z,29.10
2022-08-12T05:41:21.646Z,27.40
2022-08-12T05:43:51.141Z,28.30
2022-08-12T05:46:19.135Z,29.70
2022-08-12T05:48:46.087Z,29.30
2022-08-12T05:51:13.018Z,30.60
2022-08-12T05:53:40.881Z,29.10
2022-08-12T05:56:21.260Z,29.50
2022-08-12T05:58:49.718Z,27.60
2022-08-12T06:02:10.391Z,31.00
2022-08-12T06:04:04.173Z,31.60
2022-08-12T06:06:41.346Z,30.70
2022-08-12T06:09:13.232Z,30.70
2022-08-12T06:12:04.722Z,30.50
2022-08-12T06:14:39.175Z,32.50
2022-08-12T06:17:08.743Z,31.30
2022-08-12T06:20:26.972Z,31.00
2022-08-12T06:22:22.793Z,28.20
2022-08-12T06:24:50.032Z,29.40
2022-08-12T06:27:18.938Z,31.80
2022-08-12T06:30:07.924Z,31.30
2022-08-12T06:32:33.163Z,32.70
2022-08-12T06:35:26.488Z,32.50
2022-08-12T06:37:57.185Z,30.40
2022-08-12T06:40:44.011Z,30.80
2022-08-12T06:43:11.022Z,29.00
2022-08-12T06:45:45.068Z,29.20
2022-08-12T06:48:13.777Z,30.40
2022-08-12T06:50:42.351Z,32.30
2022-08-12T06:53:11.290Z,32.80
2022-08-12T06:55:39.383Z,31.70
2022-08-12T06:58:25.670Z,31.00
2022-08-12T07:00:53.388Z,30.60
2022-08-12T07:03:29.565Z,31.80
2022-08-12T07:06:01.553Z,32.30
2022-08-12T07:08:30.205Z,32.00
2022-08-12T07:11:00.961Z,32.90
2022-08-12T07:14:11.729Z,32.80
2022-08-12T07:16:50.678Z,29.80
2022-08-12T07:19:17.681Z,32.00
2022-08-12T07:22:02.374Z,32.90
2022-08-12T07:24:30.473Z,30.80
2022-08-12T07:26:57.526Z,30.60
2022-08-12T07:29:26.126Z,32.40
2022-08-12T07:32:12.998Z,34.00
2022-08-12T07:34:43.421Z,33.30
2022-08-12T07:37:10.449Z,33.00
2022-08-12T07:39:49.928Z,32.50
2022-08-12T07:42:20.589Z,31.10
2022-08-12T07:44:47.592Z,30.30
2022-08-12T07:47:18.815Z,31.10
2022-08-12T07:50:06.009Z,33.50
2022-08-12T07:52:37.182Z,32.30
2022-08-12T07:55:05.336Z,29.60
2022-08-12T07:57:35.463Z,30.70
2022-08-12T08:00:06.157Z,29.40
2022-08-12T08:02:33.771Z,28.50
2022-08-12T08:05:00.931Z,27.60
2022-08-12T08:07:30.685Z,26.70
2022-08-12T08:10:00.041Z,26.50
2022-08-12T08:12:47.346Z,26.50
2022-08-12T08:15:15.762Z,26.00
2022-08-12T08:17:57.877Z,26.00
2022-08-12T08:20:28.840Z,25.90
2022-08-12T08:22:57.786Z,25.70
2022-08-12T08:25:35.617Z,26.00
2022-08-12T08:28:06.966Z,25.60
2022-08-12T08:30:34.614Z,25.70
2022-08-12T08:33:01.439Z,25.80
2022-08-12T08:35:46.351Z,25.80
2022-08-12T08:38:32.435Z,26.00
2022-08-12T08:42:15.208Z,26.10
2022-08-12T08:44:11.265Z,26.00
2022-08-12T08:46:39.636Z,26.20
2022-08-12T08:49:06.932Z,26.40
2022-08-12T08:51:34.118Z,26.50
2022-08-12T08:54:01.140Z,26.20
2022-08-12T08:56:30.901Z,26.50
2022-08-12T08:58:58.241Z,26.90
2022-08-12T09:01:26.654Z,26.90
2022-08-12T09:05:09.196Z,26.80
2022-08-12T09:06:58.514Z,26.90
2022-08-12T09:09:34.120Z,27.00
2022-08-12T09:12:33.204Z,26.90
2022-08-12T09:15:07.106Z,27.00
2022-08-12T09:20:43.407Z,27.40
2022-08-12T09:23:59.195Z,27.80
2022-08-12T09:26:03.851Z,27.90
2022-08-12T09:28:33.443Z,27.80
2022-08-12T09:31:00.465Z,27.80
2022-08-12T09:34:29.009Z,28.00
2022-08-12T09:36:30.939Z,28.00
2022-08-12T09:40:04.630Z,28.00
2022-08-12T09:42:54.107Z,28.20
2022-08-12T09:45:23.237Z,28.30
2022-08-12T09:48:00.001Z,28.30
2022-08-12T09:50:27.764Z,28.10
2022-08-12T09:53:36.513Z,28.30
2022-08-12T09:56:56.952Z,28.40
2022-08-12T09:59:01.623Z,28.50
2022-08-12T10:01:34.520Z,28.50
2022-08-12T10:04:04.890Z,28.50
2022-08-12T10:06:36.287Z,28.30
2022-08-12T10:09:08.492Z,28.10
2022-08-12T10:12:11.605Z,28.40
2022-08-12T10:14:49.897Z,28.00
2022-08-12T10:17:20.693Z,28.60
2022-08-12T10:19:51.834Z,29.10
2022-08-12T10:22:39.882Z,29.20
2022-08-12T10:26:36.645Z,29.00
2022-08-12T10:28:33.364Z,29.80
2022-08-12T10:31:01.446Z,29.70
2022-08-12T10:33:31.915Z,30.20
2022-08-12T10:36:00.440Z,30.10
2022-08-12T10:38:34.105Z,29.50
2022-08-12T10:41:22.451Z,29.50
2022-08-12T10:44:12.537Z,29.50
2022-08-12T10:46:49.461Z,29.00
2022-08-12T10:50:10.484Z,29.30
2022-08-12T10:52:34.223Z,29.30
2022-08-12T10:54:56.230Z,29.50
2022-08-12T10:58:12.584Z,30.10
2022-08-12T11:00:32.049Z,29.80
2022-08-12T11:04:35.340Z,29.50
2022-08-12T11:07:09.743Z,29.80
2022-08-12T11:08:42.934Z,30.80
2022-08-12T11:11:27.669Z,29.80
2022-08-12T11:14:05.110Z,29.70
2022-08-12T11:16:32.689Z,30.50
2022-08-12T11:18:59.564Z,30.90
2022-08-12T11:21:56.397Z,29.30
2022-08-12T11:24:30.180Z,29.30
2022-08-12T11:27:01.625Z,29.10
2022-08-12T11:30:05.669Z,29.20
2022-08-12T11:32:21.846Z,28.80
2022-08-12T11:34:51.920Z,28.90
2022-08-12T11:37:25.699Z,28.80
2022-08-12T11:42:45.942Z,28.80
2022-08-12T11:45:16.426Z,28.80
2022-08-12T11:47:43.935Z,29.10
2022-08-12T11:50:11.794Z,28.80
2022-08-12T11:53:58.376Z,28.80
2022-08-12T11:55:35.283Z,28.90
2022-08-12T11:59:02.895Z,28.70
2022-08-12T12:03:47.321Z,28.80
2022-08-12T12:06:20.773Z,28.70
2022-08-12T12:08:52.952Z,28.80
2022-08-12T12:11:22.459Z,29.00
2022-08-12T12:14:08.581Z,29.20
2022-08-12T12:16:39.697Z,29.10
2022-08-12T12:19:10.165Z,29.00
2022-08-12T12:21:47.845Z,29.00
2022-08-12T12:24:21.253Z,29.50
2022-08-12T12:26:59.669Z,29.40
2022-08-12T12:30:19.470Z,29.00
2022-08-12T12:32:18.945Z,29.10
2022-08-12T12:35:14.767Z,29.10
2022-08-12T12:38:04.554Z,29.10
2022-08-12T12:40:22.049Z,29.30
2022-08-12T12:43:00.399Z,29.10
2022-08-12T12:45:32.442Z,29.40
2022-08-12T12:48:01.765Z,29.50
2022-08-12T12:50:35.970Z,29.30
2022-08-12T12:54:07.872Z,29.30
2022-08-12T12:56:12.235Z,29.50
2022-08-12T12:58:40.167Z,29.70
2022-08-12T13:01:26.891Z,29.60
2022-08-12T13:04:02.564Z,29.70
2022-08-12T13:06:31.702Z,29.60
2022-08-12T13:09:02.500Z,29.90
2022-08-12T13:11:41.148Z,29.90
2022-08-12T13:14:12.561Z,29.70
2022-08-12T13:16:44.091Z,29.50
2022-08-12T13:19:11.498Z,29.70
2022-08-12T13:22:02.012Z,30.00
2022-08-12T13:24:31.757Z,29.80
2022-08-12T13:26:58.660Z,30.00
2022-08-12T13:29:25.517Z,30.00
2022-08-12T13:32:18.806Z,29.80
2022-08-12T13:34:40.468Z,29.60
2022-08-12T13:37:09.229Z,29.40
2022-08-12T13:39:37.421Z,29.80
2022-08-12T13:42:13.845Z,29.80
2022-08-12T13:44:41.891Z,29.80
2022-08-12T13:47:10.328Z,30.00
2022-08-12T13:49:55.251Z,29.90
2022-08-12T13:52:23.629Z,29.70
2022-08-12T13:54:54.180Z,29.70
2022-08-12T13:57:25.579Z,29.60
2022-08-12T13:59:55.565Z,29.50
2022-08-12T14:02:27.473Z,29.40
2022-08-12T14:04:56.285Z,29.50
2022-08-12T14:07:26.067Z,29.80
2022-08-12T14:10:16.240Z,29.70
2022-08-12T14:12:54.235Z,29.70
2022-08-12T14:15:36.502Z,29.70
2022-08-12T14:18:34.845Z,29.90
2022-08-12T14:21:09.564Z,29.80
2022-08-12T14:24:04.083Z,29.80
2022-08-12T14:26:25.784Z,29.70
2022-08-12T14:28:57.730Z,29.70
2022-08-12T14:31:31.577Z,29.80
2022-08-12T14:33:59.975Z,29.80
2022-08-12T14:36:28.513Z,29.70
2022-08-12T14:38:55.965Z,29.40
2022-08-12T14:41:36.557Z,29.80
2022-08-12T14:44:56.833Z,29.90
2022-08-12T14:46:55.756Z,29.80
2022-08-12T14:50:01.365Z,29.60
2022-08-12T14:53:42.387Z,29.60
2022-08-12T14:57:58.213Z,29.60
2022-08-12T15:00:52.243Z,29.50
2022-08-12T15:03:23.290Z,29.60
2022-08-12T15:06:04.966Z,29.70
2022-08-12T15:08:41.529Z,29.70
2022-08-12T15:11:13.555Z,29.40
2022-08-12T15:13:48.856Z,29.20
2022-08-12T15:16:19.452Z,29.50
2022-08-12T15:18:55.517Z,29.50
2022-08-12T15:22:37.871Z,29.50
2022-08-12T15:24:13.360Z,29.50
2022-08-12T15:26:44.158Z,29.50
2022-08-12T15:29:13.422Z,29.30
2022-08-12T15:32:02.100Z,29.40
2022-08-12T15:34:30.771Z,29.60
2022-08-12T15:36:57.829Z,29.40
2022-08-12T15:39:25.391Z,29.20
2022-08-12T15:41:55.588Z,29.40
2022-08-12T15:44:38.191Z,29.40
2022-08-12T15:47:09.671Z,29.50
2022-08-12T15:49:42.908Z,29.50
2022-08-12T15:52:27.831Z,29.50
2022-08-12T15:54:58.756Z,29.40
2022-08-12T15:57:33.288Z,29.20
2022-08-12T16:00:07.121Z,29.30
2022-08-12T16:02:50.995Z,29.30
2022-08-12T16:06:11.633Z,29.20
2022-08-12T16:08:18.417Z,29.10
2022-08-12T16:10:47.165Z,29.00
2022-08-12T16:13:25.313Z,29.00
2022-08-12T16:16:03.920Z,29.00
2022-08-12T16:18:39.776Z,29.10
2022-08-12T16:21:50.684Z,29.10
2022-08-12T16:23:59.590Z,29.10
2022-08-12T16:26:34.874Z,29.10
2022-08-12T16:29:15.087Z,29.00
2022-08-12T16:31:44.101Z,29.10
2022-08-12T16:34:26.116Z,29.00
2022-08-12T16:37:08.733Z,29.00
2022-08-12T16:39:59.658Z,29.00
2022-08-12T16:42:28.170Z,29.00
2022-08-12T16:45:00.386Z,29.10
2022-08-12T16:47:58.406Z,29.10
2022-08-12T16:50:31.083Z,29.10
2022-08-12T16:53:02.389Z,29.00
2022-08-12T16:55:42.436Z,29.00
2022-08-12T16:58:28.083Z,29.00
2022-08-12T17:00:58.758Z,28.90
2022-08-12T17:03:32.373Z,28.90
2022-08-12T17:06:04.241Z,28.80
2022-08-12T17:08:31.372Z,28.80
2022-08-12T17:10:58.445Z,28.70
2022-08-12T17:13:28.883Z,28.70
2022-08-12T17:16:06.157Z,28.70
2022-08-12T17:18:43.820Z,28.60
2022-08-12T17:21:41.047Z,28.70
2022-08-12T17:24:15.084Z,28.60
2022-08-12T17:26:49.129Z,28.50
2022-08-12T17:29:32.305Z,28.60
2022-08-12T17:32:10.262Z,28.40
2022-08-12T17:34:56.033Z,28.40
2022-08-12T17:37:23.217Z,28.40
2022-08-12T17:40:12.042Z,28.40
2022-08-12T17:42:43.710Z,28.30
2022-08-12T17:45:19.773Z,28.20
2022-08-12T17:48:05.345Z,28.20
2022-08-12T17:50:42.750Z,28.10
2022-08-12T17:53:10.926Z,28.10
2022-08-12T17:55:43.600Z,28.00
2022-08-12T17:58:14.643Z,27.90
2022-08-12T18:00:44.206Z,27.90
2022-08-12T18:04:04.397Z,27.80
2022-08-12T18:06:13.979Z,27.70
2022-08-12T18:08:54.545Z,27.70
2022-08-12T18:12:06.569Z,27.70
2022-08-12T18:14:31.523Z,27.60
2022-08-12T18:17:00.720Z,27.50
2022-08-12T18:19:34.266Z,27.30
2022-08-12T18:22:21.652Z,27.20
2022-08-12T18:24:49.867Z,27.20
2022-08-12T18:27:46.966Z,27.10
2022-08-12T18:30:20.390Z,27.10
2022-08-12T18:33:04.056Z,26.90
2022-08-12T18:35:47.419Z,26.90
2022-08-12T18:38:25.280Z,26.80
2022-08-12T18:41:21.161Z,26.60
2022-08-12T18:43:59.029Z,26.60
2022-08-12T18:46:35.913Z,26.60
2022-08-12T18:49:17.815Z,26.50
2022-08-12T18:52:01.981Z,26.40
2022-08-12T18:54:53.396Z,26.30
2022-08-12T18:58:05.753Z,26.20
2022-08-12T19:00:15.973Z,26.10
2022-08-12T19:02:44.768Z,25.80
2022-08-12T19:05:17.760Z,25.80
2022-08-12T19:08:01.702Z,25.70
2022-08-12T19:10:31.313Z,25.70
2022-08-12T19:13:23.923Z,25.60
2022-08-12T19:15:57.821Z,25.60
2022-08-12T19:18:29.851Z,25.50
2022-08-12T19:21:11.602Z,25.40
2022-08-12T19:23:42.692Z,25.40
2022-08-12T19:26:12.438Z,25.30
2022-08-12T19:28:40.634Z,25.20
2022-08-12T19:31:55.290Z,25.10
2022-08-12T19:37:38.728Z,24.70
2022-08-12T19:40:31.081Z,24.60
2022-08-12T19:43:01.855Z,24.30
2022-08-12T19:45:43.459Z,24.40
2022-08-12T19:48:18.597Z,24.20
2022-08-12T19:50:50.195Z,24.00
2022-08-12T19:53:19.163Z,23.90
2022-08-12T19:55:51.834Z,23.90
2022-08-12T19:58:20.601Z,23.80
2022-08-12T20:00:56.309Z,23.90
2022-08-12T20:03:38.407Z,23.70
2022-08-12T20:06:13.671Z,23.60
2022-08-12T20:08:48.673Z,23.70
2022-08-12T20:12:09.874Z,23.50
2022-08-12T20:14:09.633Z,23.30
2022-08-12T20:19:52.571Z,23.00
2022-08-12T20:22:24.678Z,22.90
2022-08-12T20:25:01.528Z,22.70
2022-08-12T20:28:03.383Z,22.70
2022-08-12T20:30:16.303Z,22.70
2022-08-12T20:32:56.421Z,22.60
2022-08-12T20:35:31.475Z,22.60
2022-08-12T20:38:25.969Z,22.40
2022-08-12T20:40:52.917Z,22.40
2022-08-12T20:43:24.259Z,22.30
2022-08-12T20:45:57.398Z,22.40
2022-08-12T20:48:29.401Z,22.50
2022-08-12T20:51:04.318Z,22.50
2022-08-12T20:53:57.823Z,22.60
2022-08-12T20:56:30.677Z,22.50
2022-08-12T20:59:00.095Z,22.50
2022-08-12T21:01:29.212Z,22.40
2022-08-12T21:04:32.153Z,22.30
2022-08-12T21:07:08.486Z,22.20
2022-08-12T21:09:44.631Z,22.20
2022-08-12T21:12:28.243Z,22.10
2022-08-12T21:15:23.634Z,22.00
2022-08-12T21:18:10.735Z,21.90
2022-08-12T21:20:52.494Z,21.70
2022-08-12T21:23:21.484Z,21.60
2022-08-12T21:25:49.040Z,21.60
2022-08-12T21:28:21.052Z,21.50
2022-08-12T21:31:10.444Z,21.40
2022-08-12T21:33:58.261Z,21.40
2022-08-12T21:36:34.361Z,21.30
2022-08-12T21:39:19.244Z,21.20
2022-08-12T21:41:53.637Z,21.20
2022-08-12T21:45:44.512Z,21.10
2022-08-12T21:47:21.461Z,21.10
2022-08-12T21:50:02.566Z,21.10
2022-08-12T21:52:34.575Z,21.00
2022-08-12T21:55:18.515Z,20.90
2022-08-12T21:57:51.425Z,20.90
2022-08-12T22:00:33.403Z,21.00
2022-08-12T22:04:04.446Z,20.90
2022-08-12T22:06:30.871Z,20.80
2022-08-12T22:09:16.518Z,20.80
2022-08-12T22:11:49.410Z,21.10
2022-08-12T22:14:26.278Z,21.10
2022-08-12T22:16:55.705Z,21.10
2022-08-12T22:19:24.182Z,20.90
2022-08-12T22:21:53.952Z,20.80
2022-08-12T22:24:26.313Z,20.80
2022-08-12T22:26:55.538Z,20.90
2022-08-12T22:29:41.512Z,20.80
2022-08-12T22:32:11.964Z,20.70
2022-08-12T22:34:39.392Z,20.60
2022-08-12T22:37:11.522Z,20.60
2022-08-12T22:39:49.076Z,20.60
2022-08-12T22:42:41.312Z,20.60
2022-08-12T22:45:27.542Z,20.70
2022-08-12T22:47:56.431Z,20.70
2022-08-12T22:50:26.977Z,20.60
2022-08-12T22:53:17.331Z,20.60
2022-08-12T22:55:59.619Z,20.50
2022-08-12T22:58:40.383Z,20.40
2022-08-12T23:01:10.983Z,20.30
2022-08-12T23:03:48.859Z,20.30
2022-08-12T23:06:23.904Z,20.30
2022-08-12T23:08:52.251Z,20.20
2022-08-12T23:11:23.551Z,20.20
2022-08-12T23:13:56.918Z,20.00
2022-08-12T23:16:31.784Z,20.00
2022-08-12T23:19:29.562Z,20.10
2022-08-12T23:22:35.820Z,20.00
2022-08-12T23:24:55.696Z,20.00
2022-08-12T23:27:51.212Z,19.90
2022-08-12T23:30:25.074Z,19.80
2022-08-12T23:32:59.871Z,19.90
2022-08-12T23:35:46.065Z,19.90
2022-08-12T23:38:30.325Z,19.90
2022-08-12T23:41:03.961Z,19.70
2022-08-12T23:43:39.702Z,19.70
2022-08-12T23:46:12.369Z,19.80
2022-08-12T23:48:48.101Z,19.70
2022-08-12T23:51:26.729Z,19.80
2022-08-12T23:54:07.175Z,19.60
2022-08-12T23:56:35.789Z,19.60
2022-08-12T23:59:05.824Z,19.60
